sensor_id;sensor_type;location;lat;lon;timestamp;P1;durP1;ratioP1;P2;durP2;ratioP2
74421;SDS011;62856;51.446;8.360;2023-08-06T00:00:02;2.55;;;1.02;;
74421;SDS011;62856;51.446;8.360;2023-08-06T00:02:28;3.28;;;1.13;;
74421;SDS011;62856;51.446;8.360;2023-08-06T00:04:53;5.55;;;1.10;;
74421;SDS011;62856;51.446;8.360;2023-08-06T00:07:18;3.53;;;1.10;;
74421;SDS011;62856;51.446;8.360;2023-08-06T00:09:44;3.07;;;1.03;;
74421;SDS011;62856;51.446;8.360;2023-08-06T00:12:09;2.90;;;1.05;;
74421;SDS011;62856;51.446;8.360;2023-08-06T00:14:34;3.28;;;1.08;;
74421;SDS011;62856;51.446;8.360;2023-08-06T00:17:00;3.35;;;1.00;;
74421;SDS011;62856;51.446;8.360;2023-08-06T00:19:25;2.65;;;1.00;;
74421;SDS011;62856;51.446;8.360;2023-08-06T00:21:50;2.28;;;1.00;;
74421;SDS011;62856;51.446;8.360;2023-08-06T00:24:16;4.43;;;1.23;;
74421;SDS011;62856;51.446;8.360;2023-08-06T00:26:41;3.27;;;1.00;;
74421;SDS011;62856;51.446;8.360;2023-08-06T00:29:06;1.70;;;0.80;;
74421;SDS011;62856;51.446;8.360;2023-08-06T00:31:31;2.08;;;0.98;;
74421;SDS011;62856;51.446;8.360;2023-08-06T00:33:57;1.55;;;0.70;;
74421;SDS011;62856;51.446;8.360;2023-08-06T00:36:22;3.58;;;0.85;;
74421;SDS011;62856;51.446;8.360;2023-08-06T00:38:47;3.20;;;0.90;;
74421;SDS011;62856;51.446;8.360;2023-08-06T00:41:13;2.23;;;0.80;;
74421;SDS011;62856;51.446;8.360;2023-08-06T00:43:38;3.20;;;0.90;;
74421;SDS011;62856;51.446;8.360;2023-08-06T00:46:04;2.25;;;0.80;;
74421;SDS011;62856;51.446;8.360;2023-08-06T00:48:29;2.15;;;0.80;;
74421;SDS011;62856;51.446;8.360;2023-08-06T00:50:54;2.58;;;1.00;;
74421;SDS011;62856;51.446;8.360;2023-08-06T00:53:20;2.13;;;0.93;;
74421;SDS011;62856;51.446;8.360;2023-08-06T00:55:45;3.47;;;1.00;;
74421;SDS011;62856;51.446;8.360;2023-08-06T00:58:11;2.65;;;0.90;;
74421;SDS011;62856;51.446;8.360;2023-08-06T01:00:38;1.70;;;0.80;;
74421;SDS011;62856;51.446;8.360;2023-08-06T01:03:03;2.20;;;1.10;;
74421;SDS011;62856;51.446;8.360;2023-08-06T01:05:29;2.13;;;0.90;;
74421;SDS011;62856;51.446;8.360;2023-08-06T01:11:01;2.38;;;0.95;;
74421;SDS011;62856;51.446;8.360;2023-08-06T01:13:32;3.53;;;0.90;;
74421;SDS011;62856;51.446;8.360;2023-08-06T01:16:06;2.30;;;0.93;;
74421;SDS011;62856;51.446;8.360;2023-08-06T01:18:34;2.90;;;1.00;;
74421;SDS011;62856;51.446;8.360;2023-08-06T01:21:00;2.35;;;0.90;;
74421;SDS011;62856;51.446;8.360;2023-08-06T01:23:25;2.42;;;0.90;;
74421;SDS011;62856;51.446;8.360;2023-08-06T01:26:05;2.13;;;0.88;;
74421;SDS011;62856;51.446;8.360;2023-08-06T01:28:38;2.63;;;1.00;;
74421;SDS011;62856;51.446;8.360;2023-08-06T01:31:10;2.80;;;1.00;;
74421;SDS011;62856;51.446;8.360;2023-08-06T01:33:40;2.20;;;0.70;;
74421;SDS011;62856;51.446;8.360;2023-08-06T01:36:10;2.92;;;1.00;;
74421;SDS011;62856;51.446;8.360;2023-08-06T01:38:36;2.92;;;1.00;;
74421;SDS011;62856;51.446;8.360;2023-08-06T01:41:01;2.40;;;1.20;;
74421;SDS011;62856;51.446;8.360;2023-08-06T01:43:26;2.10;;;0.90;;
74421;SDS011;62856;51.446;8.360;2023-08-06T01:45:51;2.83;;;0.90;;
74421;SDS011;62856;51.446;8.360;2023-08-06T01:48:17;2.30;;;0.73;;
74421;SDS011;62856;51.446;8.360;2023-08-06T01:50:42;3.07;;;1.17;;
74421;SDS011;62856;51.446;8.360;2023-08-06T01:53:07;2.25;;;0.90;;
74421;SDS011;62856;51.446;8.360;2023-08-06T01:55:33;2.57;;;0.80;;
74421;SDS011;62856;51.446;8.360;2023-08-06T01:57:58;1.13;;;0.60;;
74421;SDS011;62856;51.446;8.360;2023-08-06T02:00:23;1.90;;;0.80;;
74421;SDS011;62856;51.446;8.360;2023-08-06T02:02:48;2.13;;;0.90;;
74421;SDS011;62856;51.446;8.360;2023-08-06T02:05:14;3.40;;;0.90;;
74421;SDS011;62856;51.446;8.360;2023-08-06T02:07:39;1.70;;;0.88;;
74421;SDS011;62856;51.446;8.360;2023-08-06T02:10:05;4.43;;;1.55;;
74421;SDS011;62856;51.446;8.360;2023-08-06T02:12:30;3.90;;;1.10;;
74421;SDS011;62856;51.446;8.360;2023-08-06T02:14:56;2.92;;;0.90;;
74421;SDS011;62856;51.446;8.360;2023-08-06T02:17:21;2.55;;;0.88;;
74421;SDS011;62856;51.446;8.360;2023-08-06T02:19:46;2.25;;;0.98;;
74421;SDS011;62856;51.446;8.360;2023-08-06T02:22:12;3.30;;;1.10;;
74421;SDS011;62856;51.446;8.360;2023-08-06T02:24:40;2.15;;;0.90;;
74421;SDS011;62856;51.446;8.360;2023-08-06T02:27:06;2.90;;;0.90;;
74421;SDS011;62856;51.446;8.360;2023-08-06T02:29:31;2.30;;;0.85;;
74421;SDS011;62856;51.446;8.360;2023-08-06T02:31:56;2.70;;;0.95;;
74421;SDS011;62856;51.446;8.360;2023-08-06T02:34:22;2.60;;;0.98;;
74421;SDS011;62856;51.446;8.360;2023-08-06T02:36:47;1.63;;;0.60;;
74421;SDS011;62856;51.446;8.360;2023-08-06T02:39:12;2.73;;;0.90;;
74421;SDS011;62856;51.446;8.360;2023-08-06T02:41:38;2.13;;;0.90;;
74421;SDS011;62856;51.446;8.360;2023-08-06T02:44:03;2.15;;;1.00;;
74421;SDS011;62856;51.446;8.360;2023-08-06T02:46:28;2.90;;;0.95;;
74421;SDS011;62856;51.446;8.360;2023-08-06T02:48:54;2.63;;;0.93;;
74421;SDS011;62856;51.446;8.360;2023-08-06T02:51:19;3.43;;;1.03;;
74421;SDS011;62856;51.446;8.360;2023-08-06T02:53:44;2.92;;;1.00;;
74421;SDS011;62856;51.446;8.360;2023-08-06T02:56:10;2.63;;;0.82;;
74421;SDS011;62856;51.446;8.360;2023-08-06T02:58:35;3.13;;;0.90;;
74421;SDS011;62856;51.446;8.360;2023-08-06T03:01:01;2.87;;;0.90;;
74421;SDS011;62856;51.446;8.360;2023-08-06T03:03:31;2.42;;;0.82;;
74421;SDS011;62856;51.446;8.360;2023-08-06T03:05:57;2.55;;;0.80;;
74421;SDS011;62856;51.446;8.360;2023-08-06T03:08:23;2.72;;;0.95;;
74421;SDS011;62856;51.446;8.360;2023-08-06T03:10:49;2.80;;;1.10;;
74421;SDS011;62856;51.446;8.360;2023-08-06T03:13:15;2.28;;;0.80;;
74421;SDS011;62856;51.446;8.360;2023-08-06T03:15:51;3.92;;;1.00;;
74421;SDS011;62856;51.446;8.360;2023-08-06T03:18:23;2.88;;;1.05;;
74421;SDS011;62856;51.446;8.360;2023-08-06T03:20:50;2.40;;;0.98;;
74421;SDS011;62856;51.446;8.360;2023-08-06T03:23:16;2.70;;;0.93;;
74421;SDS011;62856;51.446;8.360;2023-08-06T03:25:41;3.63;;;1.00;;
74421;SDS011;62856;51.446;8.360;2023-08-06T03:28:06;2.55;;;1.00;;
74421;SDS011;62856;51.446;8.360;2023-08-06T03:30:32;2.20;;;0.90;;
74421;SDS011;62856;51.446;8.360;2023-08-06T03:32:57;2.38;;;1.10;;
74421;SDS011;62856;51.446;8.360;2023-08-06T03:35:22;3.88;;;1.10;;
74421;SDS011;62856;51.446;8.360;2023-08-06T03:37:48;2.10;;;0.90;;
74421;SDS011;62856;51.446;8.360;2023-08-06T03:40:14;2.42;;;1.00;;
74421;SDS011;62856;51.446;8.360;2023-08-06T03:42:40;3.65;;;1.15;;
74421;SDS011;62856;51.446;8.360;2023-08-06T03:45:06;2.93;;;1.00;;
74421;SDS011;62856;51.446;8.360;2023-08-06T03:47:31;3.65;;;1.10;;
74421;SDS011;62856;51.446;8.360;2023-08-06T03:49:57;2.33;;;0.82;;
74421;SDS011;62856;51.446;8.360;2023-08-06T03:52:23;3.15;;;1.05;;
74421;SDS011;62856;51.446;8.360;2023-08-06T03:54:48;2.13;;;0.90;;
74421;SDS011;62856;51.446;8.360;2023-08-06T03:57:13;1.90;;;0.80;;
74421;SDS011;62856;51.446;8.360;2023-08-06T03:59:39;1.75;;;0.90;;
74421;SDS011;62856;51.446;8.360;2023-08-06T04:02:04;1.80;;;0.73;;
74421;SDS011;62856;51.446;8.360;2023-08-06T04:04:30;3.60;;;1.08;;
74421;SDS011;62856;51.446;8.360;2023-08-06T04:06:55;1.48;;;0.70;;
74421;SDS011;62856;51.446;8.360;2023-08-06T04:09:20;1.92;;;0.90;;
74421;SDS011;62856;51.446;8.360;2023-08-06T04:11:46;2.17;;;0.82;;
74421;SDS011;62856;51.446;8.360;2023-08-06T04:14:11;2.37;;;1.00;;
74421;SDS011;62856;51.446;8.360;2023-08-06T04:16:36;3.87;;;1.03;;
74421;SDS011;62856;51.446;8.360;2023-08-06T04:19:01;1.80;;;0.80;;
74421;SDS011;62856;51.446;8.360;2023-08-06T04:21:27;2.40;;;1.00;;
74421;SDS011;62856;51.446;8.360;2023-08-06T04:23:52;4.40;;;1.10;;
74421;SDS011;62856;51.446;8.360;2023-08-06T04:26:17;1.95;;;1.00;;
74421;SDS011;62856;51.446;8.360;2023-08-06T04:28:43;2.60;;;0.90;;
74421;SDS011;62856;51.446;8.360;2023-08-06T04:31:08;1.20;;;0.70;;
74421;SDS011;62856;51.446;8.360;2023-08-06T04:33:34;2.42;;;1.00;;
74421;SDS011;62856;51.446;8.360;2023-08-06T04:35:59;2.85;;;1.10;;
74421;SDS011;62856;51.446;8.360;2023-08-06T04:38:25;2.70;;;1.00;;
74421;SDS011;62856;51.446;8.360;2023-08-06T04:40:50;2.92;;;0.90;;
74421;SDS011;62856;51.446;8.360;2023-08-06T04:43:16;3.95;;;1.15;;
74421;SDS011;62856;51.446;8.360;2023-08-06T04:45:51;2.15;;;0.95;;
74421;SDS011;62856;51.446;8.360;2023-08-06T04:48:18;1.90;;;0.80;;
74421;SDS011;62856;51.446;8.360;2023-08-06T04:50:47;2.33;;;0.82;;
74421;SDS011;62856;51.446;8.360;2023-08-06T04:53:13;2.63;;;0.90;;
74421;SDS011;62856;51.446;8.360;2023-08-06T04:55:38;2.97;;;1.00;;
74421;SDS011;62856;51.446;8.360;2023-08-06T04:58:04;2.03;;;0.75;;
74421;SDS011;62856;51.446;8.360;2023-08-06T05:00:30;1.73;;;0.80;;
74421;SDS011;62856;51.446;8.360;2023-08-06T05:02:55;1.48;;;0.80;;
74421;SDS011;62856;51.446;8.360;2023-08-06T05:05:21;2.90;;;1.00;;
74421;SDS011;62856;51.446;8.360;2023-08-06T05:07:48;2.00;;;0.93;;
74421;SDS011;62856;51.446;8.360;2023-08-06T05:10:14;2.70;;;1.00;;
74421;SDS011;62856;51.446;8.360;2023-08-06T05:12:40;1.33;;;0.68;;
74421;SDS011;62856;51.446;8.360;2023-08-06T05:15:05;1.63;;;1.00;;
74421;SDS011;62856;51.446;8.360;2023-08-06T05:17:31;2.53;;;0.90;;
74421;SDS011;62856;51.446;8.360;2023-08-06T05:19:56;2.97;;;1.00;;
74421;SDS011;62856;51.446;8.360;2023-08-06T05:22:22;2.40;;;0.90;;
74421;SDS011;62856;51.446;8.360;2023-08-06T05:24:47;2.35;;;0.90;;
74421;SDS011;62856;51.446;8.360;2023-08-06T05:27:13;2.03;;;0.90;;
74421;SDS011;62856;51.446;8.360;2023-08-06T05:29:38;1.50;;;0.77;;
74421;SDS011;62856;51.446;8.360;2023-08-06T05:32:03;2.75;;;0.90;;
74421;SDS011;62856;51.446;8.360;2023-08-06T05:34:29;2.05;;;0.88;;
74421;SDS011;62856;51.446;8.360;2023-08-06T05:36:54;2.78;;;0.90;;
74421;SDS011;62856;51.446;8.360;2023-08-06T05:39:19;2.60;;;0.80;;
74421;SDS011;62856;51.446;8.360;2023-08-06T05:41:45;2.58;;;0.90;;
74421;SDS011;62856;51.446;8.360;2023-08-06T05:44:10;1.70;;;0.90;;
74421;SDS011;62856;51.446;8.360;2023-08-06T05:46:35;1.10;;;0.70;;
74421;SDS011;62856;51.446;8.360;2023-08-06T05:49:01;1.85;;;0.82;;
74421;SDS011;62856;51.446;8.360;2023-08-06T05:51:26;2.10;;;0.80;;
74421;SDS011;62856;51.446;8.360;2023-08-06T05:53:52;1.85;;;0.93;;
74421;SDS011;62856;51.446;8.360;2023-08-06T05:56:17;3.90;;;1.17;;
74421;SDS011;62856;51.446;8.360;2023-08-06T05:58:43;2.60;;;0.80;;
74421;SDS011;62856;51.446;8.360;2023-08-06T06:01:08;1.80;;;0.80;;
74421;SDS011;62856;51.446;8.360;2023-08-06T06:03:33;1.80;;;0.75;;
74421;SDS011;62856;51.446;8.360;2023-08-06T06:06:00;3.08;;;1.05;;
74421;SDS011;62856;51.446;8.360;2023-08-06T06:08:25;3.28;;;0.82;;
74421;SDS011;62856;51.446;8.360;2023-08-06T06:10:51;2.87;;;0.90;;
74421;SDS011;62856;51.446;8.360;2023-08-06T06:13:16;3.30;;;1.10;;
74421;SDS011;62856;51.446;8.360;2023-08-06T06:15:41;2.85;;;1.00;;
74421;SDS011;62856;51.446;8.360;2023-08-06T06:18:07;4.32;;;1.10;;
74421;SDS011;62856;51.446;8.360;2023-08-06T06:20:32;2.28;;;0.88;;
74421;SDS011;62856;51.446;8.360;2023-08-06T06:22:58;3.00;;;0.93;;
74421;SDS011;62856;51.446;8.360;2023-08-06T06:25:24;1.92;;;0.82;;
74421;SDS011;62856;51.446;8.360;2023-08-06T06:27:49;3.75;;;1.10;;
74421;SDS011;62856;51.446;8.360;2023-08-06T06:30:14;3.58;;;1.13;;
74421;SDS011;62856;51.446;8.360;2023-08-06T06:32:40;3.05;;;1.08;;
74421;SDS011;62856;51.446;8.360;2023-08-06T06:35:06;2.75;;;1.05;;
74421;SDS011;62856;51.446;8.360;2023-08-06T06:37:31;3.88;;;1.13;;
74421;SDS011;62856;51.446;8.360;2023-08-06T06:39:57;3.45;;;1.10;;
74421;SDS011;62856;51.446;8.360;2023-08-06T06:42:22;2.95;;;1.10;;
74421;SDS011;62856;51.446;8.360;2023-08-06T06:44:48;3.05;;;1.10;;
74421;SDS011;62856;51.446;8.360;2023-08-06T06:47:13;4.63;;;1.17;;
74421;SDS011;62856;51.446;8.360;2023-08-06T06:49:39;3.75;;;1.20;;
74421;SDS011;62856;51.446;8.360;2023-08-06T06:52:07;4.60;;;1.10;;
74421;SDS011;62856;51.446;8.360;2023-08-06T06:54:32;3.67;;;1.60;;
74421;SDS011;62856;51.446;8.360;2023-08-06T06:56:58;4.38;;;1.30;;
74421;SDS011;62856;51.446;8.360;2023-08-06T06:59:23;7.07;;;1.65;;
74421;SDS011;62856;51.446;8.360;2023-08-06T07:01:49;9.15;;;3.10;;
74421;SDS011;62856;51.446;8.360;2023-08-06T07:04:14;15.97;;;6.60;;
74421;SDS011;62856;51.446;8.360;2023-08-06T07:06:39;12.45;;;4.13;;
74421;SDS011;62856;51.446;8.360;2023-08-06T07:09:05;7.43;;;2.42;;
74421;SDS011;62856;51.446;8.360;2023-08-06T07:11:30;7.53;;;2.08;;
74421;SDS011;62856;51.446;8.360;2023-08-06T07:13:56;7.03;;;2.08;;
74421;SDS011;62856;51.446;8.360;2023-08-06T07:16:25;6.18;;;2.03;;
74421;SDS011;62856;51.446;8.360;2023-08-06T07:18:51;5.97;;;2.00;;
74421;SDS011;62856;51.446;8.360;2023-08-06T07:21:18;7.28;;;1.83;;
74421;SDS011;62856;51.446;8.360;2023-08-06T07:23:43;3.60;;;1.05;;
74421;SDS011;62856;51.446;8.360;2023-08-06T07:26:08;4.00;;;1.47;;
74421;SDS011;62856;51.446;8.360;2023-08-06T07:28:34;4.03;;;1.20;;
74421;SDS011;62856;51.446;8.360;2023-08-06T07:30:59;4.20;;;1.48;;
74421;SDS011;62856;51.446;8.360;2023-08-06T07:33:25;6.82;;;1.70;;
74421;SDS011;62856;51.446;8.360;2023-08-06T07:35:50;3.85;;;1.45;;
74421;SDS011;62856;51.446;8.360;2023-08-06T07:38:15;4.18;;;1.30;;
74421;SDS011;62856;51.446;8.360;2023-08-06T07:40:41;4.57;;;1.30;;
74421;SDS011;62856;51.446;8.360;2023-08-06T07:43:06;4.30;;;1.50;;
74421;SDS011;62856;51.446;8.360;2023-08-06T07:45:32;3.67;;;1.20;;
74421;SDS011;62856;51.446;8.360;2023-08-06T07:47:59;3.35;;;1.20;;
74421;SDS011;62856;51.446;8.360;2023-08-06T07:50:25;6.13;;;1.73;;
74421;SDS011;62856;51.446;8.360;2023-08-06T07:52:50;5.70;;;1.52;;
74421;SDS011;62856;51.446;8.360;2023-08-06T07:55:15;7.10;;;1.87;;
74421;SDS011;62856;51.446;8.360;2023-08-06T07:57:40;5.05;;;1.60;;
74421;SDS011;62856;51.446;8.360;2023-08-06T08:00:06;5.78;;;1.60;;
74421;SDS011;62856;51.446;8.360;2023-08-06T08:02:32;4.05;;;1.40;;
74421;SDS011;62856;51.446;8.360;2023-08-06T08:04:57;4.13;;;1.35;;
74421;SDS011;62856;51.446;8.360;2023-08-06T08:07:22;4.90;;;1.43;;
74421;SDS011;62856;51.446;8.360;2023-08-06T08:09:48;6.40;;;1.60;;
74421;SDS011;62856;51.446;8.360;2023-08-06T08:12:13;4.45;;;1.52;;
74421;SDS011;62856;51.446;8.360;2023-08-06T08:14:39;4.93;;;1.48;;
74421;SDS011;62856;51.446;8.360;2023-08-06T08:17:04;4.03;;;1.20;;
74421;SDS011;62856;51.446;8.360;2023-08-06T08:19:30;5.25;;;1.25;;
74421;SDS011;62856;51.446;8.360;2023-08-06T08:21:56;3.13;;;1.33;;
74421;SDS011;62856;51.446;8.360;2023-08-06T08:24:22;3.75;;;1.10;;
74421;SDS011;62856;51.446;8.360;2023-08-06T08:26:49;3.78;;;1.27;;
74421;SDS011;62856;51.446;8.360;2023-08-06T08:29:17;4.25;;;1.20;;
74421;SDS011;62856;51.446;8.360;2023-08-06T08:31:44;4.10;;;1.20;;
74421;SDS011;62856;51.446;8.360;2023-08-06T08:34:09;2.80;;;1.20;;
74421;SDS011;62856;51.446;8.360;2023-08-06T08:36:34;4.07;;;1.20;;
74421;SDS011;62856;51.446;8.360;2023-08-06T08:39:00;3.47;;;1.30;;
74421;SDS011;62856;51.446;8.360;2023-08-06T08:41:27;3.00;;;1.30;;
74421;SDS011;62856;51.446;8.360;2023-08-06T08:43:54;7.22;;;1.80;;
74421;SDS011;62856;51.446;8.360;2023-08-06T08:46:21;4.28;;;1.38;;
74421;SDS011;62856;51.446;8.360;2023-08-06T08:48:47;4.55;;;1.58;;
74421;SDS011;62856;51.446;8.360;2023-08-06T08:51:13;3.85;;;1.63;;
74421;SDS011;62856;51.446;8.360;2023-08-06T08:53:39;2.58;;;1.05;;
74421;SDS011;62856;51.446;8.360;2023-08-06T08:56:07;3.72;;;1.10;;
74421;SDS011;62856;51.446;8.360;2023-08-06T08:58:32;2.65;;;1.15;;
74421;SDS011;62856;51.446;8.360;2023-08-06T09:00:58;4.43;;;1.20;;
74421;SDS011;62856;51.446;8.360;2023-08-06T09:03:24;2.72;;;1.05;;
74421;SDS011;62856;51.446;8.360;2023-08-06T09:05:52;3.75;;;1.30;;
74421;SDS011;62856;51.446;8.360;2023-08-06T09:08:20;3.50;;;1.17;;
74421;SDS011;62856;51.446;8.360;2023-08-06T09:10:49;4.68;;;1.33;;
74421;SDS011;62856;51.446;8.360;2023-08-06T09:13:15;2.38;;;0.93;;
74421;SDS011;62856;51.446;8.360;2023-08-06T09:15:41;2.72;;;1.02;;
74421;SDS011;62856;51.446;8.360;2023-08-06T09:18:09;3.25;;;1.02;;
74421;SDS011;62856;51.446;8.360;2023-08-06T09:20:36;2.70;;;1.00;;
74421;SDS011;62856;51.446;8.360;2023-08-06T09:23:09;2.65;;;1.00;;
74421;SDS011;62856;51.446;8.360;2023-08-06T09:25:36;2.70;;;1.02;;
74421;SDS011;62856;51.446;8.360;2023-08-06T09:28:05;3.00;;;0.98;;
74421;SDS011;62856;51.446;8.360;2023-08-06T09:30:31;2.67;;;1.00;;
74421;SDS011;62856;51.446;8.360;2023-08-06T09:32:58;3.13;;;1.10;;
74421;SDS011;62856;51.446;8.360;2023-08-06T09:35:23;4.60;;;0.90;;
74421;SDS011;62856;51.446;8.360;2023-08-06T09:37:49;3.20;;;1.10;;
74421;SDS011;62856;51.446;8.360;2023-08-06T09:40:27;2.17;;;0.80;;
74421;SDS011;62856;51.446;8.360;2023-08-06T09:42:54;2.25;;;0.95;;
74421;SDS011;62856;51.446;8.360;2023-08-06T09:45:21;2.88;;;1.02;;
74421;SDS011;62856;51.446;8.360;2023-08-06T09:47:49;3.58;;;1.00;;
74421;SDS011;62856;51.446;8.360;2023-08-06T09:50:16;2.95;;;0.93;;
74421;SDS011;62856;51.446;8.360;2023-08-06T09:52:43;3.38;;;1.10;;
74421;SDS011;62856;51.446;8.360;2023-08-06T09:55:10;1.73;;;0.80;;
74421;SDS011;62856;51.446;8.360;2023-08-06T09:57:37;1.75;;;0.70;;
74421;SDS011;62856;51.446;8.360;2023-08-06T10:00:03;1.33;;;0.80;;
74421;SDS011;62856;51.446;8.360;2023-08-06T10:02:30;3.17;;;1.15;;
74421;SDS011;62856;51.446;8.360;2023-08-06T10:04:57;1.38;;;0.70;;
74421;SDS011;62856;51.446;8.360;2023-08-06T10:07:24;2.38;;;0.80;;
74421;SDS011;62856;51.446;8.360;2023-08-06T10:09:49;3.33;;;1.08;;
74421;SDS011;62856;51.446;8.360;2023-08-06T10:12:15;3.58;;;1.10;;
74421;SDS011;62856;51.446;8.360;2023-08-06T10:14:43;2.72;;;1.10;;
74421;SDS011;62856;51.446;8.360;2023-08-06T10:17:10;2.00;;;0.98;;
74421;SDS011;62856;51.446;8.360;2023-08-06T10:19:36;2.58;;;1.02;;
74421;SDS011;62856;51.446;8.360;2023-08-06T10:22:14;1.77;;;1.02;;
74421;SDS011;62856;51.446;8.360;2023-08-06T10:24:45;2.55;;;0.90;;
74421;SDS011;62856;51.446;8.360;2023-08-06T10:27:11;4.63;;;0.93;;
74421;SDS011;62856;51.446;8.360;2023-08-06T10:29:36;4.00;;;1.13;;
74421;SDS011;62856;51.446;8.360;2023-08-06T10:32:02;1.42;;;0.80;;
74421;SDS011;62856;51.446;8.360;2023-08-06T10:37:21;2.67;;;1.08;;
74421;SDS011;62856;51.446;8.360;2023-08-06T10:39:49;2.97;;;0.90;;
74421;SDS011;62856;51.446;8.360;2023-08-06T10:42:28;3.15;;;1.00;;
74421;SDS011;62856;51.446;8.360;2023-08-06T10:45:13;2.97;;;1.00;;
74421;SDS011;62856;51.446;8.360;2023-08-06T10:47:41;3.45;;;0.90;;
74421;SDS011;62856;51.446;8.360;2023-08-06T10:50:07;2.25;;;1.00;;
74421;SDS011;62856;51.446;8.360;2023-08-06T10:52:36;3.33;;;1.05;;
74421;SDS011;62856;51.446;8.360;2023-08-06T10:55:01;3.67;;;1.00;;
74421;SDS011;62856;51.446;8.360;2023-08-06T10:57:26;2.10;;;0.85;;
74421;SDS011;62856;51.446;8.360;2023-08-06T10:59:52;3.17;;;0.88;;
74421;SDS011;62856;51.446;8.360;2023-08-06T11:02:17;4.07;;;1.20;;
74421;SDS011;62856;51.446;8.360;2023-08-06T11:04:42;4.45;;;1.30;;
74421;SDS011;62856;51.446;8.360;2023-08-06T11:07:08;3.40;;;0.93;;
74421;SDS011;62856;51.446;8.360;2023-08-06T11:09:33;5.13;;;1.23;;
74421;SDS011;62856;51.446;8.360;2023-08-06T11:11:58;3.30;;;1.10;;
74421;SDS011;62856;51.446;8.360;2023-08-06T11:14:24;4.97;;;1.20;;
74421;SDS011;62856;51.446;8.360;2023-08-06T11:16:49;2.80;;;1.08;;
74421;SDS011;62856;51.446;8.360;2023-08-06T11:19:15;4.30;;;1.10;;
74421;SDS011;62856;51.446;8.360;2023-08-06T11:21:41;4.38;;;1.20;;
74421;SDS011;62856;51.446;8.360;2023-08-06T11:24:09;3.72;;;1.00;;
74421;SDS011;62856;51.446;8.360;2023-08-06T11:26:36;4.05;;;1.10;;
74421;SDS011;62856;51.446;8.360;2023-08-06T11:29:02;2.67;;;0.98;;
74421;SDS011;62856;51.446;8.360;2023-08-06T11:31:28;4.00;;;1.30;;
74421;SDS011;62856;51.446;8.360;2023-08-06T11:33:55;3.35;;;1.27;;
74421;SDS011;62856;51.446;8.360;2023-08-06T11:36:34;4.68;;;1.20;;
74421;SDS011;62856;51.446;8.360;2023-08-06T11:39:01;2.60;;;0.90;;
74421;SDS011;62856;51.446;8.360;2023-08-06T11:41:34;3.33;;;0.88;;
74421;SDS011;62856;51.446;8.360;2023-08-06T11:44:03;2.58;;;0.80;;
74421;SDS011;62856;51.446;8.360;2023-08-06T11:46:28;2.58;;;1.00;;
74421;SDS011;62856;51.446;8.360;2023-08-06T11:48:54;3.05;;;1.00;;
74421;SDS011;62856;51.446;8.360;2023-08-06T11:51:26;4.10;;;0.88;;
74421;SDS011;62856;51.446;8.360;2023-08-06T11:53:58;5.25;;;0.90;;
74421;SDS011;62856;51.446;8.360;2023-08-06T11:56:24;4.10;;;1.25;;
74421;SDS011;62856;51.446;8.360;2023-08-06T11:58:51;3.53;;;1.10;;
74421;SDS011;62856;51.446;8.360;2023-08-06T12:01:16;2.63;;;0.90;;
74421;SDS011;62856;51.446;8.360;2023-08-06T12:03:43;3.60;;;1.08;;
74421;SDS011;62856;51.446;8.360;2023-08-06T12:06:08;3.13;;;1.02;;
74421;SDS011;62856;51.446;8.360;2023-08-06T12:08:33;3.42;;;1.05;;
74421;SDS011;62856;51.446;8.360;2023-08-06T12:10:59;2.93;;;1.00;;
74421;SDS011;62856;51.446;8.360;2023-08-06T12:13:24;3.95;;;1.10;;
74421;SDS011;62856;51.446;8.360;2023-08-06T12:15:50;2.40;;;0.95;;
74421;SDS011;62856;51.446;8.360;2023-08-06T12:18:19;3.22;;;1.00;;
74421;SDS011;62856;51.446;8.360;2023-08-06T12:20:44;2.95;;;0.93;;
74421;SDS011;62856;51.446;8.360;2023-08-06T12:23:10;3.03;;;1.00;;
74421;SDS011;62856;51.446;8.360;2023-08-06T12:25:35;3.70;;;0.90;;
74421;SDS011;62856;51.446;8.360;2023-08-06T12:28:00;1.60;;;0.77;;
74421;SDS011;62856;51.446;8.360;2023-08-06T12:30:26;2.28;;;1.08;;
74421;SDS011;62856;51.446;8.360;2023-08-06T12:32:51;4.65;;;1.20;;
74421;SDS011;62856;51.446;8.360;2023-08-06T12:35:17;2.25;;;0.82;;
74421;SDS011;62856;51.446;8.360;2023-08-06T12:37:42;3.27;;;1.00;;
74421;SDS011;62856;51.446;8.360;2023-08-06T12:40:09;2.38;;;0.93;;
74421;SDS011;62856;51.446;8.360;2023-08-06T12:42:34;1.27;;;0.75;;
74421;SDS011;62856;51.446;8.360;2023-08-06T12:45:00;2.58;;;1.00;;
74421;SDS011;62856;51.446;8.360;2023-08-06T12:47:25;3.50;;;1.13;;
74421;SDS011;62856;51.446;8.360;2023-08-06T12:49:50;2.07;;;0.83;;
74421;SDS011;62856;51.446;8.360;2023-08-06T12:52:16;2.70;;;0.93;;
74421;SDS011;62856;51.446;8.360;2023-08-06T12:54:42;3.58;;;0.95;;
74421;SDS011;62856;51.446;8.360;2023-08-06T12:57:07;2.00;;;0.80;;
74421;SDS011;62856;51.446;8.360;2023-08-06T12:59:33;4.13;;;1.00;;
74421;SDS011;62856;51.446;8.360;2023-08-06T13:01:59;2.45;;;0.82;;
74421;SDS011;62856;51.446;8.360;2023-08-06T13:04:25;2.83;;;1.00;;
74421;SDS011;62856;51.446;8.360;2023-08-06T13:06:50;3.05;;;0.80;;
74421;SDS011;62856;51.446;8.360;2023-08-06T13:09:16;2.67;;;0.95;;
74421;SDS011;62856;51.446;8.360;2023-08-06T13:11:41;2.60;;;0.90;;
74421;SDS011;62856;51.446;8.360;2023-08-06T13:14:11;3.25;;;1.08;;
74421;SDS011;62856;51.446;8.360;2023-08-06T13:16:39;2.47;;;0.98;;
74421;SDS011;62856;51.446;8.360;2023-08-06T13:19:05;2.60;;;1.00;;
74421;SDS011;62856;51.446;8.360;2023-08-06T13:24:06;2.35;;;1.00;;
74421;SDS011;62856;51.446;8.360;2023-08-06T13:26:31;2.95;;;0.90;;
74421;SDS011;62856;51.446;8.360;2023-08-06T13:28:57;3.70;;;1.13;;
74421;SDS011;62856;51.446;8.360;2023-08-06T13:31:24;1.60;;;0.90;;
74421;SDS011;62856;51.446;8.360;2023-08-06T13:33:50;2.20;;;0.90;;
74421;SDS011;62856;51.446;8.360;2023-08-06T13:36:18;2.47;;;0.90;;
74421;SDS011;62856;51.446;8.360;2023-08-06T13:38:43;3.05;;;0.75;;
74421;SDS011;62856;51.446;8.360;2023-08-06T13:41:09;2.13;;;0.73;;
74421;SDS011;62856;51.446;8.360;2023-08-06T13:43:34;2.90;;;1.10;;
74421;SDS011;62856;51.446;8.360;2023-08-06T13:45:59;2.17;;;0.70;;
74421;SDS011;62856;51.446;8.360;2023-08-06T13:48:25;1.65;;;0.73;;
74421;SDS011;62856;51.446;8.360;2023-08-06T13:50:50;3.70;;;0.80;;
74421;SDS011;62856;51.446;8.360;2023-08-06T13:53:15;3.42;;;0.80;;
74421;SDS011;62856;51.446;8.360;2023-08-06T13:55:41;1.67;;;0.93;;
74421;SDS011;62856;51.446;8.360;2023-08-06T13:58:06;2.67;;;1.13;;
74421;SDS011;62856;51.446;8.360;2023-08-06T14:00:31;1.53;;;0.60;;
74421;SDS011;62856;51.446;8.360;2023-08-06T14:02:57;1.80;;;0.80;;
74421;SDS011;62856;51.446;8.360;2023-08-06T14:05:22;3.20;;;0.90;;
74421;SDS011;62856;51.446;8.360;2023-08-06T14:07:47;2.63;;;0.70;;
74421;SDS011;62856;51.446;8.360;2023-08-06T14:10:12;2.17;;;0.80;;
74421;SDS011;62856;51.446;8.360;2023-08-06T14:12:38;3.83;;;0.85;;
74421;SDS011;62856;51.446;8.360;2023-08-06T14:15:04;3.47;;;0.85;;
74421;SDS011;62856;51.446;8.360;2023-08-06T14:17:29;1.63;;;0.60;;
74421;SDS011;62856;51.446;8.360;2023-08-06T14:19:54;3.25;;;0.70;;
74421;SDS011;62856;51.446;8.360;2023-08-06T14:22:21;2.40;;;0.63;;
74421;SDS011;62856;51.446;8.360;2023-08-06T14:24:47;1.92;;;0.90;;
74421;SDS011;62856;51.446;8.360;2023-08-06T14:27:12;3.40;;;1.15;;
74421;SDS011;62856;51.446;8.360;2023-08-06T14:29:38;4.25;;;1.45;;
74421;SDS011;62856;51.446;8.360;2023-08-06T14:32:03;4.55;;;1.20;;
74421;SDS011;62856;51.446;8.360;2023-08-06T14:34:29;4.18;;;1.10;;
74421;SDS011;62856;51.446;8.360;2023-08-06T14:36:54;3.97;;;1.10;;
74421;SDS011;62856;51.446;8.360;2023-08-06T14:39:19;4.10;;;1.20;;
74421;SDS011;62856;51.446;8.360;2023-08-06T14:41:45;3.60;;;1.20;;
74421;SDS011;62856;51.446;8.360;2023-08-06T14:44:10;2.85;;;1.20;;
74421;SDS011;62856;51.446;8.360;2023-08-06T14:46:36;2.78;;;0.98;;
74421;SDS011;62856;51.446;8.360;2023-08-06T14:49:02;2.53;;;1.00;;